Diekirch, Luxembourg
Current Conditions -  °F | °C
As of 2:20 AM on Wednesday 26 Nov 2014 (Local Time) from ELLX Reporting Station
NA  
Wind Chill: 36°   Ceiling: NA
Heat Index: 41°   Visibility: 2.5mi
Dew Point: 39°   Wind: 8mph
Humidity: 93%   Direction: 60°ENE
Pressure: 30"   Gusts: NA
Location:  49.87°N, 6.16°E
Report Text: ELLX 260120Z AUTO 06007KT 4100 NDV 05/04 Q1016
Loading
Personal Weather Stations






























Interactive Weather Map New forecast layout! Learn more

10-Day Weather Forecast

Advertisements
Track Severe Weather on mobile